sensor_id;sensor_type;location;lat;lon;timestamp;temperature;humidity
75262;DHT22;63859;51.064;4.580;2024-02-26T00:02:02;7.00;99.90
75262;DHT22;63859;51.064;4.580;2024-02-26T00:04:28;7.10;99.90
75262;DHT22;63859;51.064;4.580;2024-02-26T00:06:54;7.00;99.90
75262;DHT22;63859;51.064;4.580;2024-02-26T00:09:20;7.00;99.90
75262;DHT22;63859;51.064;4.580;2024-02-26T00:11:46;7.00;99.90
75262;DHT22;63859;51.064;4.580;2024-02-26T00:14:12;7.00;99.90
75262;DHT22;63859;51.064;4.580;2024-02-26T00:16:40;7.00;99.90
75262;DHT22;63859;51.064;4.580;2024-02-26T00:19:06;6.90;99.90
75262;DHT22;63859;51.064;4.580;2024-02-26T00:23:58;7.00;99.90
75262;DHT22;63859;51.064;4.580;2024-02-26T00:26:24;7.00;99.90
75262;DHT22;63859;51.064;4.580;2024-02-26T00:31:15;7.00;99.90
75262;DHT22;63859;51.064;4.580;2024-02-26T00:33:41;6.90;99.90
75262;DHT22;63859;51.064;4.580;2024-02-26T00:36:07;7.00;99.90
75262;DHT22;63859;51.064;4.580;2024-02-26T00:38:32;7.00;99.90
75262;DHT22;63859;51.064;4.580;2024-02-26T00:40:58;7.00;99.90
75262;DHT22;63859;51.064;4.580;2024-02-26T00:43:24;7.00;99.90
75262;DHT22;63859;51.064;4.580;2024-02-26T00:45:50;7.00;99.90
75262;DHT22;63859;51.064;4.580;2024-02-26T00:48:17;7.00;99.90
75262;DHT22;63859;51.064;4.580;2024-02-26T00:50:42;6.90;99.90
75262;DHT22;63859;51.064;4.580;2024-02-26T00:53:08;6.90;99.90
75262;DHT22;63859;51.064;4.580;2024-02-26T00:55:34;6.90;99.90
75262;DHT22;63859;51.064;4.580;2024-02-26T00:57:59;6.90;99.90
75262;DHT22;63859;51.064;4.580;2024-02-26T01:00:25;6.90;99.90
75262;DHT22;63859;51.064;4.580;2024-02-26T01:02:51;6.90;99.90
75262;DHT22;63859;51.064;4.580;2024-02-26T01:05:16;6.90;99.90
75262;DHT22;63859;51.064;4.580;2024-02-26T01:07:42;6.90;99.90
75262;DHT22;63859;51.064;4.580;2024-02-26T01:10:08;6.90;99.90
75262;DHT22;63859;51.064;4.580;2024-02-26T01:12:34;6.90;99.90
75262;DHT22;63859;51.064;4.580;2024-02-26T01:15:03;6.80;99.90
75262;DHT22;63859;51.064;4.580;2024-02-26T01:17:30;6.80;99.90
75262;DHT22;63859;51.064;4.580;2024-02-26T01:19:55;6.80;99.90
75262;DHT22;63859;51.064;4.580;2024-02-26T01:22:21;6.80;99.90
75262;DHT22;63859;51.064;4.580;2024-02-26T01:24:47;6.80;99.90
75262;DHT22;63859;51.064;4.580;2024-02-26T01:27:13;6.80;99.90
75262;DHT22;63859;51.064;4.580;2024-02-26T01:29:41;6.80;99.90
75262;DHT22;63859;51.064;4.580;2024-02-26T01:32:07;6.80;99.90
75262;DHT22;63859;51.064;4.580;2024-02-26T01:34:33;6.70;99.90
75262;DHT22;63859;51.064;4.580;2024-02-26T01:36:59;6.70;99.90
75262;DHT22;63859;51.064;4.580;2024-02-26T01:39:24;6.70;99.90
75262;DHT22;63859;51.064;4.580;2024-02-26T01:41:50;6.70;99.90
75262;DHT22;63859;51.064;4.580;2024-02-26T01:44:16;6.60;99.90
75262;DHT22;63859;51.064;4.580;2024-02-26T01:46:42;6.60;99.90
75262;DHT22;63859;51.064;4.580;2024-02-26T01:49:11;6.60;99.90
75262;DHT22;63859;51.064;4.580;2024-02-26T01:51:38;6.60;99.90
75262;DHT22;63859;51.064;4.580;2024-02-26T01:54:06;6.60;99.90
75262;DHT22;63859;51.064;4.580;2024-02-26T01:56:34;6.50;99.90
75262;DHT22;63859;51.064;4.580;2024-02-26T01:59:01;6.50;99.90
75262;DHT22;63859;51.064;4.580;2024-02-26T02:01:29;6.50;99.90
75262;DHT22;63859;51.064;4.580;2024-02-26T02:03:57;6.50;99.90
75262;DHT22;63859;51.064;4.580;2024-02-26T02:06:23;6.50;99.90
75262;DHT22;63859;51.064;4.580;2024-02-26T02:08:49;6.50;99.90
75262;DHT22;63859;51.064;4.580;2024-02-26T02:11:15;6.50;99.90
75262;DHT22;63859;51.064;4.580;2024-02-26T02:13:41;6.50;99.90
75262;DHT22;63859;51.064;4.580;2024-02-26T02:18:33;6.40;99.90
75262;DHT22;63859;51.064;4.580;2024-02-26T02:23:26;6.40;99.90
75262;DHT22;63859;51.064;4.580;2024-02-26T02:25:53;6.40;99.90
75262;DHT22;63859;51.064;4.580;2024-02-26T02:30:46;6.40;99.90
75262;DHT22;63859;51.064;4.580;2024-02-26T02:33:12;6.40;99.90
75262;DHT22;63859;51.064;4.580;2024-02-26T02:35:40;6.40;99.90
75262;DHT22;63859;51.064;4.580;2024-02-26T02:38:06;6.30;99.90
75262;DHT22;63859;51.064;4.580;2024-02-26T02:40:32;6.40;99.90
75262;DHT22;63859;51.064;4.580;2024-02-26T02:42:57;6.30;99.90
75262;DHT22;63859;51.064;4.580;2024-02-26T02:45:24;6.30;99.90
75262;DHT22;63859;51.064;4.580;2024-02-26T02:47:49;6.30;99.90
75262;DHT22;63859;51.064;4.580;2024-02-26T02:50:15;6.30;99.90
75262;DHT22;63859;51.064;4.580;2024-02-26T02:52:41;6.30;99.90
75262;DHT22;63859;51.064;4.580;2024-02-26T02:55:07;6.30;99.90
75262;DHT22;63859;51.064;4.580;2024-02-26T02:57:33;6.30;99.90
75262;DHT22;63859;51.064;4.580;2024-02-26T02:59:58;6.30;99.90
75262;DHT22;63859;51.064;4.580;2024-02-26T03:02:24;6.30;99.90
75262;DHT22;63859;51.064;4.580;2024-02-26T03:04:52;6.30;99.90
75262;DHT22;63859;51.064;4.580;2024-02-26T03:07:18;6.20;99.90
75262;DHT22;63859;51.064;4.580;2024-02-26T03:09:44;6.20;99.90
75262;DHT22;63859;51.064;4.580;2024-02-26T03:12:09;6.20;99.90
75262;DHT22;63859;51.064;4.580;2024-02-26T03:14:35;6.20;99.90
75262;DHT22;63859;51.064;4.580;2024-02-26T03:17:01;6.20;99.90
75262;DHT22;63859;51.064;4.580;2024-02-26T03:19:26;6.20;99.90
75262;DHT22;63859;51.064;4.580;2024-02-26T03:21:52;6.20;99.90
75262;DHT22;63859;51.064;4.580;2024-02-26T03:24:18;6.20;99.90
75262;DHT22;63859;51.064;4.580;2024-02-26T03:26:43;6.20;99.90
75262;DHT22;63859;51.064;4.580;2024-02-26T03:29:09;6.20;99.90
75262;DHT22;63859;51.064;4.580;2024-02-26T03:31:34;6.20;99.90
75262;DHT22;63859;51.064;4.580;2024-02-26T03:34:00;6.20;99.90
75262;DHT22;63859;51.064;4.580;2024-02-26T03:36:26;6.20;99.90
75262;DHT22;63859;51.064;4.580;2024-02-26T03:38:52;6.10;99.90
75262;DHT22;63859;51.064;4.580;2024-02-26T03:41:17;6.10;99.90
75262;DHT22;63859;51.064;4.580;2024-02-26T03:43:43;6.10;99.90
75262;DHT22;63859;51.064;4.580;2024-02-26T03:46:10;6.10;99.90
75262;DHT22;63859;51.064;4.580;2024-02-26T03:48:39;6.10;99.90
75262;DHT22;63859;51.064;4.580;2024-02-26T03:51:05;6.10;99.90
75262;DHT22;63859;51.064;4.580;2024-02-26T03:53:31;6.10;99.90
75262;DHT22;63859;51.064;4.580;2024-02-26T03:55:56;6.10;99.90
75262;DHT22;63859;51.064;4.580;2024-02-26T03:58:22;6.10;99.90
75262;DHT22;63859;51.064;4.580;2024-02-26T04:00:47;6.10;99.90
75262;DHT22;63859;51.064;4.580;2024-02-26T04:03:14;6.10;99.90
75262;DHT22;63859;51.064;4.580;2024-02-26T04:05:39;6.10;99.90
75262;DHT22;63859;51.064;4.580;2024-02-26T04:08:05;6.10;99.90
75262;DHT22;63859;51.064;4.580;2024-02-26T04:10:33;6.10;99.90
75262;DHT22;63859;51.064;4.580;2024-02-26T04:13:00;6.10;99.90
75262;DHT22;63859;51.064;4.580;2024-02-26T04:15:26;6.10;99.90
75262;DHT22;63859;51.064;4.580;2024-02-26T04:17:52;6.10;99.90
75262;DHT22;63859;51.064;4.580;2024-02-26T04:20:17;6.10;99.90
75262;DHT22;63859;51.064;4.580;2024-02-26T04:22:43;6.10;99.90
75262;DHT22;63859;51.064;4.580;2024-02-26T04:25:09;6.10;99.90
75262;DHT22;63859;51.064;4.580;2024-02-26T04:27:35;6.10;99.90
75262;DHT22;63859;51.064;4.580;2024-02-26T04:30:01;6.10;99.90
75262;DHT22;63859;51.064;4.580;2024-02-26T04:32:26;6.10;99.90
75262;DHT22;63859;51.064;4.580;2024-02-26T04:34:54;6.10;99.90
75262;DHT22;63859;51.064;4.580;2024-02-26T04:37:19;6.10;99.90
75262;DHT22;63859;51.064;4.580;2024-02-26T04:39:45;6.10;99.90
75262;DHT22;63859;51.064;4.580;2024-02-26T04:42:11;6.10;99.90
75262;DHT22;63859;51.064;4.580;2024-02-26T04:44:36;6.10;99.90
75262;DHT22;63859;51.064;4.580;2024-02-26T04:47:02;6.10;99.90
75262;DHT22;63859;51.064;4.580;2024-02-26T04:49:28;6.10;99.90
75262;DHT22;63859;51.064;4.580;2024-02-26T04:51:54;6.10;99.90
75262;DHT22;63859;51.064;4.580;2024-02-26T04:54:20;6.10;99.90
75262;DHT22;63859;51.064;4.580;2024-02-26T04:56:46;6.10;99.90
75262;DHT22;63859;51.064;4.580;2024-02-26T04:59:11;6.10;99.90
75262;DHT22;63859;51.064;4.580;2024-02-26T05:01:37;6.10;99.90
75262;DHT22;63859;51.064;4.580;2024-02-26T05:04:03;6.10;99.90
75262;DHT22;63859;51.064;4.580;2024-02-26T05:06:29;6.10;99.90
75262;DHT22;63859;51.064;4.580;2024-02-26T05:08:54;6.10;99.90
75262;DHT22;63859;51.064;4.580;2024-02-26T05:11:20;6.10;99.90
75262;DHT22;63859;51.064;4.580;2024-02-26T05:13:48;6.10;99.90
75262;DHT22;63859;51.064;4.580;2024-02-26T05:16:13;6.10;99.90
75262;DHT22;63859;51.064;4.580;2024-02-26T05:18:39;6.10;99.90
75262;DHT22;63859;51.064;4.580;2024-02-26T05:21:04;6.10;99.90
75262;DHT22;63859;51.064;4.580;2024-02-26T05:23:30;6.10;99.90
75262;DHT22;63859;51.064;4.580;2024-02-26T05:25:56;6.00;99.90
75262;DHT22;63859;51.064;4.580;2024-02-26T05:28:21;6.10;99.90
75262;DHT22;63859;51.064;4.580;2024-02-26T05:30:47;6.10;99.90
75262;DHT22;63859;51.064;4.580;2024-02-26T05:33:13;6.10;99.90
75262;DHT22;63859;51.064;4.580;2024-02-26T05:35:39;6.10;99.90
75262;DHT22;63859;51.064;4.580;2024-02-26T05:38:06;6.10;99.90
75262;DHT22;63859;51.064;4.580;2024-02-26T05:40:31;6.00;99.90
75262;DHT22;63859;51.064;4.580;2024-02-26T05:42:57;6.10;99.90
75262;DHT22;63859;51.064;4.580;2024-02-26T05:45:23;6.00;99.90
75262;DHT22;63859;51.064;4.580;2024-02-26T05:47:48;6.00;99.90
75262;DHT22;63859;51.064;4.580;2024-02-26T05:50:15;6.00;99.90
75262;DHT22;63859;51.064;4.580;2024-02-26T05:55:07;6.00;99.90
75262;DHT22;63859;51.064;4.580;2024-02-26T05:57:34;6.00;99.90
75262;DHT22;63859;51.064;4.580;2024-02-26T06:00:00;6.00;99.90
75262;DHT22;63859;51.064;4.580;2024-02-26T06:02:32;6.00;99.90
75262;DHT22;63859;51.064;4.580;2024-02-26T06:04:57;5.90;99.90
75262;DHT22;63859;51.064;4.580;2024-02-26T06:07:23;5.90;99.90
75262;DHT22;63859;51.064;4.580;2024-02-26T06:09:49;5.90;99.90
75262;DHT22;63859;51.064;4.580;2024-02-26T06:12:15;5.90;99.90
75262;DHT22;63859;51.064;4.580;2024-02-26T06:14:43;5.90;99.90
75262;DHT22;63859;51.064;4.580;2024-02-26T06:17:09;5.90;99.90
75262;DHT22;63859;51.064;4.580;2024-02-26T06:19:35;5.90;99.90
75262;DHT22;63859;51.064;4.580;2024-02-26T06:22:01;5.90;99.90
75262;DHT22;63859;51.064;4.580;2024-02-26T06:24:27;5.90;99.90
75262;DHT22;63859;51.064;4.580;2024-02-26T06:26:52;5.90;99.90
75262;DHT22;63859;51.064;4.580;2024-02-26T06:29:18;5.90;99.90
75262;DHT22;63859;51.064;4.580;2024-02-26T06:31:43;5.90;99.90
75262;DHT22;63859;51.064;4.580;2024-02-26T06:34:09;5.90;99.90
75262;DHT22;63859;51.064;4.580;2024-02-26T06:36:35;5.90;99.90
75262;DHT22;63859;51.064;4.580;2024-02-26T06:39:00;5.90;99.90
75262;DHT22;63859;51.064;4.580;2024-02-26T06:41:26;5.90;99.90
75262;DHT22;63859;51.064;4.580;2024-02-26T06:43:56;5.90;99.90
75262;DHT22;63859;51.064;4.580;2024-02-26T06:46:24;5.90;99.90
75262;DHT22;63859;51.064;4.580;2024-02-26T06:48:51;5.90;99.90
75262;DHT22;63859;51.064;4.580;2024-02-26T06:51:17;5.90;99.90
75262;DHT22;63859;51.064;4.580;2024-02-26T06:53:43;5.90;99.90
75262;DHT22;63859;51.064;4.580;2024-02-26T06:56:09;5.90;99.90
75262;DHT22;63859;51.064;4.580;2024-02-26T06:58:34;5.90;99.90
75262;DHT22;63859;51.064;4.580;2024-02-26T07:01:00;5.80;99.90
75262;DHT22;63859;51.064;4.580;2024-02-26T07:03:25;5.90;99.90
75262;DHT22;63859;51.064;4.580;2024-02-26T07:05:51;5.90;99.90
75262;DHT22;63859;51.064;4.580;2024-02-26T07:08:17;5.90;99.90
75262;DHT22;63859;51.064;4.580;2024-02-26T07:10:44;5.90;99.90
75262;DHT22;63859;51.064;4.580;2024-02-26T07:13:10;5.90;99.90
75262;DHT22;63859;51.064;4.580;2024-02-26T07:15:35;5.90;99.90
75262;DHT22;63859;51.064;4.580;2024-02-26T07:18:01;5.90;99.90
75262;DHT22;63859;51.064;4.580;2024-02-26T07:20:30;5.90;99.90
75262;DHT22;63859;51.064;4.580;2024-02-26T07:22:56;5.90;99.90
75262;DHT22;63859;51.064;4.580;2024-02-26T07:25:22;5.90;99.90
75262;DHT22;63859;51.064;4.580;2024-02-26T07:27:50;5.90;99.90
75262;DHT22;63859;51.064;4.580;2024-02-26T07:30:15;5.90;99.90
75262;DHT22;63859;51.064;4.580;2024-02-26T07:32:42;5.90;99.90
75262;DHT22;63859;51.064;4.580;2024-02-26T07:35:08;5.90;99.90
75262;DHT22;63859;51.064;4.580;2024-02-26T07:37:34;5.90;99.90
75262;DHT22;63859;51.064;4.580;2024-02-26T07:40:00;6.00;99.90
75262;DHT22;63859;51.064;4.580;2024-02-26T07:42:26;5.90;99.90
75262;DHT22;63859;51.064;4.580;2024-02-26T07:44:51;6.00;99.90
75262;DHT22;63859;51.064;4.580;2024-02-26T07:47:18;5.90;99.90
75262;DHT22;63859;51.064;4.580;2024-02-26T07:49:44;6.00;99.90
75262;DHT22;63859;51.064;4.580;2024-02-26T07:52:10;5.90;99.90
75262;DHT22;63859;51.064;4.580;2024-02-26T07:54:36;5.90;99.90
75262;DHT22;63859;51.064;4.580;2024-02-26T07:57:01;5.90;99.90
75262;DHT22;63859;51.064;4.580;2024-02-26T07:59:31;5.90;99.90
75262;DHT22;63859;51.064;4.580;2024-02-26T08:01:57;5.90;99.90
75262;DHT22;63859;51.064;4.580;2024-02-26T08:04:22;5.90;99.90
75262;DHT22;63859;51.064;4.580;2024-02-26T08:06:48;5.90;99.90
75262;DHT22;63859;51.064;4.580;2024-02-26T08:09:14;5.90;99.90
75262;DHT22;63859;51.064;4.580;2024-02-26T08:11:39;5.90;99.90
75262;DHT22;63859;51.064;4.580;2024-02-26T08:14:05;5.90;99.90
75262;DHT22;63859;51.064;4.580;2024-02-26T08:16:31;5.90;99.90
75262;DHT22;63859;51.064;4.580;2024-02-26T08:18:56;5.90;99.90
75262;DHT22;63859;51.064;4.580;2024-02-26T08:21:23;5.90;99.90
75262;DHT22;63859;51.064;4.580;2024-02-26T08:23:48;5.90;99.90
75262;DHT22;63859;51.064;4.580;2024-02-26T08:26:14;5.90;99.90
75262;DHT22;63859;51.064;4.580;2024-02-26T08:28:40;5.90;99.90
75262;DHT22;63859;51.064;4.580;2024-02-26T08:31:05;5.90;99.90
75262;DHT22;63859;51.064;4.580;2024-02-26T08:33:32;5.80;99.90
75262;DHT22;63859;51.064;4.580;2024-02-26T08:35:59;5.90;99.90
75262;DHT22;63859;51.064;4.580;2024-02-26T08:38:25;5.90;99.90
75262;DHT22;63859;51.064;4.580;2024-02-26T08:43:18;5.90;99.90
75262;DHT22;63859;51.064;4.580;2024-02-26T08:48:10;5.90;99.90
75262;DHT22;63859;51.064;4.580;2024-02-26T08:50:36;5.90;99.90
75262;DHT22;63859;51.064;4.580;2024-02-26T08:53:02;5.80;99.90
75262;DHT22;63859;51.064;4.580;2024-02-26T08:55:29;5.80;99.90
75262;DHT22;63859;51.064;4.580;2024-02-26T08:57:55;5.80;99.90
75262;DHT22;63859;51.064;4.580;2024-02-26T09:00:20;5.90;99.90
75262;DHT22;63859;51.064;4.580;2024-02-26T09:05:15;5.90;99.90
75262;DHT22;63859;51.064;4.580;2024-02-26T09:07:41;5.90;99.90
75262;DHT22;63859;51.064;4.580;2024-02-26T09:10:07;5.90;99.90
75262;DHT22;63859;51.064;4.580;2024-02-26T09:12:36;5.90;99.90
75262;DHT22;63859;51.064;4.580;2024-02-26T09:15:03;5.80;99.90
75262;DHT22;63859;51.064;4.580;2024-02-26T09:17:29;5.90;99.90
75262;DHT22;63859;51.064;4.580;2024-02-26T09:19:54;5.90;99.90
75262;DHT22;63859;51.064;4.580;2024-02-26T09:22:20;5.90;99.90
75262;DHT22;63859;51.064;4.580;2024-02-26T09:24:46;5.90;99.90
75262;DHT22;63859;51.064;4.580;2024-02-26T09:27:11;5.90;99.90
75262;DHT22;63859;51.064;4.580;2024-02-26T09:29:37;5.80;99.90
75262;DHT22;63859;51.064;4.580;2024-02-26T09:32:03;5.80;99.90
75262;DHT22;63859;51.064;4.580;2024-02-26T09:34:28;5.80;99.90
75262;DHT22;63859;51.064;4.580;2024-02-26T09:36:54;5.80;99.90
75262;DHT22;63859;51.064;4.580;2024-02-26T09:39:20;5.80;99.90
75262;DHT22;63859;51.064;4.580;2024-02-26T09:41:48;5.80;99.90
75262;DHT22;63859;51.064;4.580;2024-02-26T09:46:49;5.80;99.90
75262;DHT22;63859;51.064;4.580;2024-02-26T09:49:17;5.90;99.90
75262;DHT22;63859;51.064;4.580;2024-02-26T09:51:44;5.90;99.90
75262;DHT22;63859;51.064;4.580;2024-02-26T09:54:09;5.90;99.90
75262;DHT22;63859;51.064;4.580;2024-02-26T09:56:39;5.90;99.90
75262;DHT22;63859;51.064;4.580;2024-02-26T09:59:16;5.90;99.90
75262;DHT22;63859;51.064;4.580;2024-02-26T10:01:42;5.90;99.90
75262;DHT22;63859;51.064;4.580;2024-02-26T10:04:10;5.90;99.90
75262;DHT22;63859;51.064;4.580;2024-02-26T10:06:37;5.90;99.90
75262;DHT22;63859;51.064;4.580;2024-02-26T10:09:03;5.90;99.90
75262;DHT22;63859;51.064;4.580;2024-02-26T10:11:32;5.90;99.90
75262;DHT22;63859;51.064;4.580;2024-02-26T10:13:58;5.90;99.90
75262;DHT22;63859;51.064;4.580;2024-02-26T10:16:25;5.90;99.90
75262;DHT22;63859;51.064;4.580;2024-02-26T10:18:53;5.90;99.90
75262;DHT22;63859;51.064;4.580;2024-02-26T10:21:22;5.80;99.90
75262;DHT22;63859;51.064;4.580;2024-02-26T10:26:16;5.80;99.90
75262;DHT22;63859;51.064;4.580;2024-02-26T10:28:43;5.80;99.90
75262;DHT22;63859;51.064;4.580;2024-02-26T10:31:09;5.80;99.90
75262;DHT22;63859;51.064;4.580;2024-02-26T10:33:36;5.80;99.90
75262;DHT22;63859;51.064;4.580;2024-02-26T10:38:32;5.80;99.90
75262;DHT22;63859;51.064;4.580;2024-02-26T10:40:58;5.80;99.90
75262;DHT22;63859;51.064;4.580;2024-02-26T10:43:27;5.80;99.90
75262;DHT22;63859;51.064;4.580;2024-02-26T10:45:55;5.80;99.90
75262;DHT22;63859;51.064;4.580;2024-02-26T10:48:21;5.80;99.90
75262;DHT22;63859;51.064;4.580;2024-02-26T10:50:47;5.80;99.90
75262;DHT22;63859;51.064;4.580;2024-02-26T10:53:17;5.80;99.90
75262;DHT22;63859;51.064;4.580;2024-02-26T10:58:16;5.80;99.90
75262;DHT22;63859;51.064;4.580;2024-02-26T11:00:43;5.80;99.90
75262;DHT22;63859;51.064;4.580;2024-02-26T11:03:09;5.90;99.90
75262;DHT22;63859;51.064;4.580;2024-02-26T11:05:36;5.90;99.90
75262;DHT22;63859;51.064;4.580;2024-02-26T11:08:04;5.90;99.90
75262;DHT22;63859;51.064;4.580;2024-02-26T11:12:59;5.80;99.90
75262;DHT22;63859;51.064;4.580;2024-02-26T11:15:28;5.80;99.90
75262;DHT22;63859;51.064;4.580;2024-02-26T11:17:55;5.80;99.90
75262;DHT22;63859;51.064;4.580;2024-02-26T11:20:22;5.80;99.90
75262;DHT22;63859;51.064;4.580;2024-02-26T11:22:48;5.80;99.90
75262;DHT22;63859;51.064;4.580;2024-02-26T11:27:49;5.80;99.90
75262;DHT22;63859;51.064;4.580;2024-02-26T11:30:16;5.80;99.90
75262;DHT22;63859;51.064;4.580;2024-02-26T11:32:46;5.80;99.90
75262;DHT22;63859;51.064;4.580;2024-02-26T11:35:12;5.80;99.90
75262;DHT22;63859;51.064;4.580;2024-02-26T11:37:41;5.80;99.90
75262;DHT22;63859;51.064;4.580;2024-02-26T11:40:11;5.80;99.90
75262;DHT22;63859;51.064;4.580;2024-02-26T11:42:44;5.90;99.90
75262;DHT22;63859;51.064;4.580;2024-02-26T11:48:23;5.90;99.90
75262;DHT22;63859;51.064;4.580;2024-02-26T11:50:53;5.90;99.90
75262;DHT22;63859;51.064;4.580;2024-02-26T11:55:45;5.90;99.90
75262;DHT22;63859;51.064;4.580;2024-02-26T11:58:11;5.90;99.90
75262;DHT22;63859;51.064;4.580;2024-02-26T12:00:36;5.80;99.90
75262;DHT22;63859;51.064;4.580;2024-02-26T12:03:03;5.90;99.90
75262;DHT22;63859;51.064;4.580;2024-02-26T12:05:33;5.80;99.90
75262;DHT22;63859;51.064;4.580;2024-02-26T12:13:07;5.80;99.90
75262;DHT22;63859;51.064;4.580;2024-02-26T12:15:37;5.80;99.90
75262;DHT22;63859;51.064;4.580;2024-02-26T12:18:04;5.80;99.90
75262;DHT22;63859;51.064;4.580;2024-02-26T12:20:31;5.80;99.90
75262;DHT22;63859;51.064;4.580;2024-02-26T12:22:57;5.80;99.90
75262;DHT22;63859;51.064;4.580;2024-02-26T12:25:25;5.80;99.90
75262;DHT22;63859;51.064;4.580;2024-02-26T12:27:53;5.80;99.90
75262;DHT22;63859;51.064;4.580;2024-02-26T12:32:48;5.70;99.90
75262;DHT22;63859;51.064;4.580;2024-02-26T12:35:15;5.70;99.90
75262;DHT22;63859;51.064;4.580;2024-02-26T12:37:42;5.70;99.90
75262;DHT22;63859;51.064;4.580;2024-02-26T12:40:11;5.70;99.90
75262;DHT22;63859;51.064;4.580;2024-02-26T12:42:38;5.70;99.90
75262;DHT22;63859;51.064;4.580;2024-02-26T12:45:11;5.70;99.90
75262;DHT22;63859;51.064;4.580;2024-02-26T12:50:03;5.70;99.90
75262;DHT22;63859;51.064;4.580;2024-02-26T12:52:33;5.70;99.90
75262;DHT22;63859;51.064;4.580;2024-02-26T12:54:59;5.70;99.90
75262;DHT22;63859;51.064;4.580;2024-02-26T12:57:26;5.70;99.90
75262;DHT22;63859;51.064;4.580;2024-02-26T12:59:52;5.70;99.90
75262;DHT22;63859;51.064;4.580;2024-02-26T13:02:18;5.70;99.90
75262;DHT22;63859;51.064;4.580;2024-02-26T13:04:44;5.60;99.90
75262;DHT22;63859;51.064;4.580;2024-02-26T13:07:10;5.70;99.90
75262;DHT22;63859;51.064;4.580;2024-02-26T13:09:36;5.70;99.90
75262;DHT22;63859;51.064;4.580;2024-02-26T13:12:04;5.70;99.90
75262;DHT22;63859;51.064;4.580;2024-02-26T13:14:31;5.70;99.90
75262;DHT22;63859;51.064;4.580;2024-02-26T13:16:59;5.70;99.90
75262;DHT22;63859;51.064;4.580;2024-02-26T13:21:53;5.70;99.90
75262;DHT22;63859;51.064;4.580;2024-02-26T13:24:20;5.70;99.90
75262;DHT22;63859;51.064;4.580;2024-02-26T13:26:46;5.70;99.90
75262;DHT22;63859;51.064;4.580;2024-02-26T13:29:18;5.80;99.90
75262;DHT22;63859;51.064;4.580;2024-02-26T13:31:44;5.80;99.90
75262;DHT22;63859;51.064;4.580;2024-02-26T13:34:09;5.80;99.90
75262;DHT22;63859;51.064;4.580;2024-02-26T13:36:35;5.80;99.90
75262;DHT22;63859;51.064;4.580;2024-02-26T13:39:01;5.80;99.90
75262;DHT22;63859;51.064;4.580;2024-02-26T13:41:30;5.80;99.90
75262;DHT22;63859;51.064;4.580;2024-02-26T13:43:56;5.80;99.90
75262;DHT22;63859;51.064;4.580;2024-02-26T13:46:23;5.80;99.90
75262;DHT22;63859;51.064;4.580;2024-02-26T13:51:14;5.80;99.90
75262;DHT22;63859;51.064;4.580;2024-02-26T13:53:42;5.80;99.90
75262;DHT22;63859;51.064;4.580;2024-02-26T13:56:07;5.80;99.90
75262;DHT22;63859;51.064;4.580;2024-02-26T13:58:35;5.80;99.90
75262;DHT22;63859;51.064;4.580;2024-02-26T14:01:01;5.80;99.90
75262;DHT22;63859;51.064;4.580;2024-02-26T14:03:28;5.80;99.90
75262;DHT22;63859;51.064;4.580;2024-02-26T14:05:54;5.80;99.90
75262;DHT22;63859;51.064;4.580;2024-02-26T14:08:20;5.80;99.90
75262;DHT22;63859;51.064;4.580;2024-02-26T14:10:46;5.80;99.90
75262;DHT22;63859;51.064;4.580;2024-02-26T14:13:11;5.90;99.90
75262;DHT22;63859;51.064;4.580;2024-02-26T14:15:37;5.90;99.90
75262;DHT22;63859;51.064;4.580;2024-02-26T14:18:04;5.80;99.90
75262;DHT22;63859;51.064;4.580;2024-02-26T14:20:30;5.90;99.90
75262;DHT22;63859;51.064;4.580;2024-02-26T14:22:56;5.90;99.90
75262;DHT22;63859;51.064;4.580;2024-02-26T14:25:21;5.90;99.90
75262;DHT22;63859;51.064;4.580;2024-02-26T14:27:47;5.90;99.90
75262;DHT22;63859;51.064;4.580;2024-02-26T14:30:14;6.00;99.90
75262;DHT22;63859;51.064;4.580;2024-02-26T14:32:40;5.90;99.90
75262;DHT22;63859;51.064;4.580;2024-02-26T14:35:07;5.90;99.90
75262;DHT22;63859;51.064;4.580;2024-02-26T14:37:34;6.00;99.90
75262;DHT22;63859;51.064;4.580;2024-02-26T14:40:00;5.90;99.90
75262;DHT22;63859;51.064;4.580;2024-02-26T14:44:54;5.90;99.90
75262;DHT22;63859;51.064;4.580;2024-02-26T14:47:19;5.90;99.90
75262;DHT22;63859;51.064;4.580;2024-02-26T14:49:45;5.90;99.90
75262;DHT22;63859;51.064;4.580;2024-02-26T14:52:14;5.90;99.90
75262;DHT22;63859;51.064;4.580;2024-02-26T14:54:39;5.90;99.90
75262;DHT22;63859;51.064;4.580;2024-02-26T14:57:05;5.90;99.90
75262;DHT22;63859;51.064;4.580;2024-02-26T14:59:32;5.90;99.90
75262;DHT22;63859;51.064;4.580;2024-02-26T15:01:58;6.00;99.90
75262;DHT22;63859;51.064;4.580;2024-02-26T15:04:26;6.00;99.90
75262;DHT22;63859;51.064;4.580;2024-02-26T15:09:18;6.00;99.90
75262;DHT22;63859;51.064;4.580;2024-02-26T15:11:44;5.90;99.90
75262;DHT22;63859;51.064;4.580;2024-02-26T15:14:10;5.90;99.90
75262;DHT22;63859;51.064;4.580;2024-02-26T15:16:36;5.90;99.90
75262;DHT22;63859;51.064;4.580;2024-02-26T15:19:02;5.90;99.90
75262;DHT22;63859;51.064;4.580;2024-02-26T15:21:32;5.90;99.90
75262;DHT22;63859;51.064;4.580;2024-02-26T15:23:58;5.90;99.90
75262;DHT22;63859;51.064;4.580;2024-02-26T15:26:24;5.90;99.90
75262;DHT22;63859;51.064;4.580;2024-02-26T15:28:51;5.90;99.90
75262;DHT22;63859;51.064;4.580;2024-02-26T15:31:17;5.90;99.90
75262;DHT22;63859;51.064;4.580;2024-02-26T15:33:44;5.90;99.90
75262;DHT22;63859;51.064;4.580;2024-02-26T15:36:10;5.90;99.90
75262;DHT22;63859;51.064;4.580;2024-02-26T15:38:36;5.90;99.90
75262;DHT22;63859;51.064;4.580;2024-02-26T15:41:02;5.90;99.90
75262;DHT22;63859;51.064;4.580;2024-02-26T15:45:53;5.90;99.90
75262;DHT22;63859;51.064;4.580;2024-02-26T15:48:19;5.90;99.90
75262;DHT22;63859;51.064;4.580;2024-02-26T15:50:45;5.90;99.90
75262;DHT22;63859;51.064;4.580;2024-02-26T15:55:36;5.90;99.90
75262;DHT22;63859;51.064;4.580;2024-02-26T15:58:02;5.90;99.90
75262;DHT22;63859;51.064;4.580;2024-02-26T16:00:28;5.90;99.90
75262;DHT22;63859;51.064;4.580;2024-02-26T16:02:53;5.90;99.90
75262;DHT22;63859;51.064;4.580;2024-02-26T16:05:19;5.90;99.90
75262;DHT22;63859;51.064;4.580;2024-02-26T16:07:52;5.90;99.90
75262;DHT22;63859;51.064;4.580;2024-02-26T16:10:19;5.90;99.90
75262;DHT22;63859;51.064;4.580;2024-02-26T16:12:49;5.90;99.90
75262;DHT22;63859;51.064;4.580;2024-02-26T16:15:18;5.90;99.90
75262;DHT22;63859;51.064;4.580;2024-02-26T16:17:46;5.90;99.90
75262;DHT22;63859;51.064;4.580;2024-02-26T16:20:18;5.90;99.90
75262;DHT22;63859;51.064;4.580;2024-02-26T16:22:47;5.90;99.90
75262;DHT22;63859;51.064;4.580;2024-02-26T16:25:14;5.90;99.90
75262;DHT22;63859;51.064;4.580;2024-02-26T16:27:40;5.90;99.90
75262;DHT22;63859;51.064;4.580;2024-02-26T16:30:09;5.90;99.90
75262;DHT22;63859;51.064;4.580;2024-02-26T16:32:36;6.00;99.90
75262;DHT22;63859;51.064;4.580;2024-02-26T16:37:30;5.90;99.90
75262;DHT22;63859;51.064;4.580;2024-02-26T16:40:00;6.00;99.90
75262;DHT22;63859;51.064;4.580;2024-02-26T16:42:27;5.90;99.90
75262;DHT22;63859;51.064;4.580;2024-02-26T16:44:53;5.90;99.90
75262;DHT22;63859;51.064;4.580;2024-02-26T16:47:21;5.90;99.90
75262;DHT22;63859;51.064;4.580;2024-02-26T16:49:46;5.90;99.90